createdAt,value
2018-06-30T00:01:32.835Z,14.50
2018-06-30T00:04:01.967Z,14.50
2018-06-30T00:06:31.186Z,14.50
2018-06-30T00:09:00.346Z,14.60
2018-06-30T00:11:29.472Z,14.70
2018-06-30T00:13:58.734Z,14.70
2018-06-30T00:16:27.894Z,14.80
2018-06-30T00:18:56.995Z,14.80
2018-06-30T00:21:26.120Z,14.80
2018-06-30T00:23:55.223Z,14.70
2018-06-30T00:26:24.394Z,14.70
2018-06-30T00:28:53.605Z,14.70
2018-06-30T00:31:22.702Z,14.60
2018-06-30T00:33:52.217Z,14.70
2018-06-30T00:36:21.614Z,14.70
2018-06-30T00:38:51.139Z,14.60
2018-06-30T00:41:20.028Z,14.50
2018-06-30T00:43:48.972Z,14.60
2018-06-30T00:46:18.080Z,14.50
2018-06-30T00:48:47.379Z,14.50
2018-06-30T00:51:16.678Z,14.30
2018-06-30T00:53:46.449Z,14.30
2018-06-30T00:56:17.487Z,14.20
2018-06-30T01:01:15.939Z,13.90
2018-06-30T01:03:45.015Z,13.70
2018-06-30T01:06:14.223Z,13.50
2018-06-30T01:08:43.383Z,13.40
2018-06-30T01:11:13.142Z,13.40
2018-06-30T01:13:42.403Z,13.30
2018-06-30T01:16:11.518Z,13.10
2018-06-30T01:18:40.683Z,13.00
2018-06-30T01:21:10.039Z,13.00
2018-06-30T01:23:39.186Z,12.90
2018-06-30T01:26:08.770Z,12.90
2018-06-30T01:28:37.928Z,12.90
2018-06-30T01:31:07.476Z,12.90
2018-06-30T01:33:36.963Z,12.90
2018-06-30T01:36:06.195Z,12.90
2018-06-30T01:38:35.437Z,12.80
2018-06-30T01:41:04.581Z,12.70
2018-06-30T01:43:33.785Z,12.60
2018-06-30T01:46:03.285Z,12.50
2018-06-30T01:48:32.494Z,12.40
2018-06-30T01:51:01.646Z,12.30
2018-06-30T01:53:30.808Z,12.30
2018-06-30T01:56:00.163Z,12.20
2018-06-30T01:58:29.456Z,12.20
2018-06-30T02:00:58.706Z,12.20
2018-06-30T02:03:28.341Z,12.10
2018-06-30T02:05:57.542Z,12.10
2018-06-30T02:08:26.815Z,12.10
2018-06-30T02:10:56.050Z,12.10
2018-06-30T02:13:25.255Z,12.00
2018-06-30T02:15:54.538Z,12.00
2018-06-30T02:18:23.663Z,11.90
2018-06-30T02:20:52.958Z,11.90
2018-06-30T02:23:22.339Z,11.80
2018-06-30T02:25:52.370Z,11.70
2018-06-30T02:28:21.278Z,11.70
2018-06-30T02:30:50.202Z,11.70
2018-06-30T02:33:19.086Z,11.60
2018-06-30T02:35:48.624Z,11.60
2018-06-30T02:38:17.800Z,11.60
2018-06-30T02:40:47.431Z,11.60
2018-06-30T02:43:16.334Z,11.60
2018-06-30T02:45:46.031Z,11.50
2018-06-30T02:48:15.766Z,11.50
2018-06-30T02:50:45.057Z,11.40
2018-06-30T02:53:14.318Z,11.40
2018-06-30T02:55:43.623Z,11.40
2018-06-30T02:58:12.923Z,11.40
2018-06-30T03:00:42.337Z,11.40
2018-06-30T03:03:11.946Z,11.40
2018-06-30T03:05:41.091Z,11.50
2018-06-30T03:08:10.236Z,11.60
2018-06-30T03:10:39.403Z,11.70
2018-06-30T03:13:08.703Z,11.80
2018-06-30T03:15:37.901Z,12.00
2018-06-30T03:18:07.302Z,12.10
2018-06-30T03:20:36.580Z,12.20
2018-06-30T03:23:05.947Z,12.30
2018-06-30T03:25:35.082Z,12.30
2018-06-30T03:28:04.481Z,12.40
2018-06-30T03:30:34.012Z,12.50
2018-06-30T03:33:03.085Z,12.60
2018-06-30T03:35:32.291Z,12.70
2018-06-30T03:38:01.450Z,12.90
2018-06-30T03:40:30.684Z,13.30
2018-06-30T03:42:59.828Z,14.30
2018-06-30T03:47:58.358Z,15.20
2018-06-30T03:50:27.684Z,14.70
2018-06-30T03:52:57.063Z,14.30
2018-06-30T03:55:26.359Z,14.20
2018-06-30T03:57:55.547Z,14.10
2018-06-30T04:00:24.851Z,14.00
2018-06-30T04:02:53.966Z,14.00
2018-06-30T04:05:23.685Z,13.90
2018-06-30T04:07:52.985Z,13.80
2018-06-30T04:10:22.119Z,13.60
2018-06-30T04:12:51.547Z,13.50
2018-06-30T04:15:20.944Z,13.40
2018-06-30T04:17:50.340Z,13.50
2018-06-30T04:20:19.435Z,13.50
2018-06-30T04:22:48.786Z,13.40
2018-06-30T04:25:18.028Z,13.50
2018-06-30T04:27:47.131Z,13.60
2018-06-30T04:30:16.354Z,13.60
2018-06-30T04:32:45.500Z,13.60
2018-06-30T04:35:14.824Z,13.50
2018-06-30T04:37:43.990Z,13.30
2018-06-30T04:40:13.119Z,13.20
2018-06-30T04:42:42.255Z,13.30
2018-06-30T04:47:40.279Z,13.50
2018-06-30T04:50:09.485Z,13.50
2018-06-30T04:52:39.030Z,13.30
2018-06-30T04:55:08.859Z,13.30
2018-06-30T04:57:38.096Z,13.30
2018-06-30T05:00:07.251Z,13.40
2018-06-30T05:02:36.237Z,13.40
2018-06-30T05:05:05.185Z,13.50
2018-06-30T05:07:34.362Z,13.60
2018-06-30T05:10:03.291Z,13.70
2018-06-30T05:12:32.460Z,14.20
2018-06-30T05:15:01.719Z,14.80
2018-06-30T05:17:31.348Z,15.10
2018-06-30T05:20:00.529Z,15.00
2018-06-30T05:22:29.672Z,14.90
2018-06-30T05:24:58.818Z,14.80
2018-06-30T05:27:27.997Z,14.70
2018-06-30T05:29:57.120Z,14.70
2018-06-30T05:32:26.277Z,15.00
2018-06-30T05:34:55.185Z,15.10
2018-06-30T05:37:24.344Z,15.30
2018-06-30T05:39:53.595Z,15.50
2018-06-30T05:42:22.822Z,15.70
2018-06-30T05:44:51.735Z,16.00
2018-06-30T05:47:20.628Z,16.00
2018-06-30T05:49:49.761Z,16.40
2018-06-30T05:52:18.927Z,17.10
2018-06-30T05:54:48.244Z,17.60
2018-06-30T05:57:17.546Z,17.80
2018-06-30T05:59:46.946Z,17.40
2018-06-30T06:02:16.701Z,18.10
2018-06-30T06:04:45.839Z,18.50
2018-06-30T06:07:14.953Z,18.40
2018-06-30T06:09:44.662Z,19.20
2018-06-30T06:12:13.972Z,20.60
2018-06-30T06:14:43.554Z,22.10
2018-06-30T06:17:12.782Z,23.30
2018-06-30T06:19:41.915Z,23.70
2018-06-30T06:24:39.822Z,23.90
2018-06-30T06:27:09.592Z,23.30
2018-06-30T06:29:39.114Z,23.00
2018-06-30T06:32:08.235Z,23.10
2018-06-30T06:34:37.632Z,21.70
2018-06-30T06:37:07.140Z,22.80
2018-06-30T06:39:36.219Z,24.10
2018-06-30T06:42:05.627Z,23.30
2018-06-30T06:44:34.822Z,22.10
2018-06-30T06:47:04.110Z,21.60
2018-06-30T06:49:33.423Z,20.80
2018-06-30T06:52:02.596Z,19.80
2018-06-30T06:54:31.798Z,19.60
2018-06-30T06:57:01.082Z,19.40
2018-06-30T06:59:30.407Z,19.40
2018-06-30T07:02:00.359Z,19.20
2018-06-30T07:04:44.196Z,19.60
2018-06-30T07:07:13.675Z,22.50
2018-06-30T07:09:43.426Z,24.90
2018-06-30T07:14:41.831Z,25.20
2018-06-30T07:19:40.154Z,26.10
2018-06-30T07:22:09.405Z,27.30
2018-06-30T07:27:07.542Z,23.00
2018-06-30T07:29:36.831Z,21.10
2018-06-30T07:32:06.159Z,19.50
2018-06-30T07:34:35.371Z,18.60
2018-06-30T07:39:33.438Z,23.00
2018-06-30T07:42:02.580Z,25.30
2018-06-30T07:44:31.715Z,24.60
2018-06-30T07:47:01.397Z,22.20
2018-06-30T07:49:30.630Z,19.80
2018-06-30T07:51:59.775Z,18.90
2018-06-30T07:54:28.879Z,18.50
2018-06-30T07:56:58.487Z,18.50
2018-06-30T07:59:27.802Z,18.00
2018-06-30T08:01:56.959Z,17.50
2018-06-30T08:04:25.931Z,17.70
2018-06-30T08:06:54.871Z,18.50
2018-06-30T08:09:24.023Z,21.00
2018-06-30T08:11:53.151Z,23.80
2018-06-30T08:14:22.524Z,25.10
2018-06-30T08:16:51.747Z,27.20
2018-06-30T08:19:20.918Z,27.30
2018-06-30T08:21:50.043Z,25.30
2018-06-30T08:24:19.366Z,23.50
2018-06-30T08:26:48.518Z,25.30
2018-06-30T08:29:17.804Z,27.40
2018-06-30T08:31:47.019Z,29.30
2018-06-30T08:34:16.211Z,28.80
2018-06-30T08:36:45.417Z,27.90
2018-06-30T08:39:14.998Z,26.90
2018-06-30T08:41:44.201Z,27.30
2018-06-30T08:44:13.510Z,28.10
2018-06-30T08:46:43.158Z,29.10
2018-06-30T08:49:12.333Z,30.40
2018-06-30T08:51:41.407Z,27.20
2018-06-30T08:54:10.823Z,26.50
2018-06-30T08:56:40.200Z,24.70
2018-06-30T08:59:09.414Z,22.90
2018-06-30T09:01:38.618Z,21.80
2018-06-30T09:04:07.816Z,20.50
2018-06-30T09:06:37.007Z,20.00
2018-06-30T09:09:08.955Z,21.60
2018-06-30T09:11:38.643Z,22.70
2018-06-30T09:14:08.110Z,23.80
2018-06-30T09:16:37.647Z,26.30
2018-06-30T09:19:06.885Z,26.90
2018-06-30T09:21:36.379Z,24.40
2018-06-30T09:24:05.793Z,22.20
2018-06-30T09:26:34.971Z,20.30
2018-06-30T09:29:04.313Z,19.70
2018-06-30T09:31:33.750Z,19.50
2018-06-30T09:34:03.388Z,19.50
2018-06-30T09:36:32.658Z,20.50
2018-06-30T09:39:02.154Z,20.90
2018-06-30T09:41:31.862Z,21.20
2018-06-30T09:44:01.022Z,21.50
2018-06-30T09:46:30.187Z,21.70
2018-06-30T09:49:00.205Z,21.30
2018-06-30T09:51:29.346Z,20.30
2018-06-30T09:53:59.443Z,20.40
2018-06-30T09:58:58.091Z,19.70
2018-06-30T10:01:27.374Z,19.40
2018-06-30T10:03:56.909Z,19.50
2018-06-30T10:06:26.438Z,19.80
2018-06-30T10:08:55.381Z,19.70
2018-06-30T10:11:24.835Z,19.80
2018-06-30T10:13:54.355Z,19.70
2018-06-30T10:16:23.559Z,19.30
2018-06-30T10:18:52.944Z,19.30
2018-06-30T10:21:22.178Z,19.30
2018-06-30T10:23:51.431Z,19.70
2018-06-30T10:28:50.266Z,20.40
2018-06-30T10:31:19.517Z,20.30
2018-06-30T10:33:48.768Z,20.40
2018-06-30T10:36:17.738Z,19.60
2018-06-30T10:38:47.572Z,19.40
2018-06-30T10:41:16.946Z,19.60
2018-06-30T10:43:46.137Z,19.80
2018-06-30T10:46:15.255Z,20.10
2018-06-30T10:48:44.421Z,20.30
2018-06-30T10:51:13.565Z,20.10
2018-06-30T10:53:42.730Z,19.70
2018-06-30T10:56:12.072Z,19.40
2018-06-30T10:58:41.414Z,19.30
2018-06-30T11:01:10.630Z,19.40
2018-06-30T11:03:40.366Z,19.80
2018-06-30T11:06:09.598Z,20.10
2018-06-30T11:08:38.717Z,20.20
2018-06-30T11:11:07.892Z,20.20
2018-06-30T11:13:37.331Z,20.10
2018-06-30T11:16:06.332Z,19.80
2018-06-30T11:18:35.569Z,19.90
2018-06-30T11:21:04.620Z,19.90
2018-06-30T11:23:33.527Z,20.10
2018-06-30T11:26:02.786Z,20.30
2018-06-30T11:28:32.067Z,20.40
2018-06-30T11:31:01.182Z,20.00
2018-06-30T11:33:30.440Z,19.80
2018-06-30T11:35:59.557Z,19.80
2018-06-30T11:38:29.082Z,20.10
2018-06-30T11:40:58.301Z,20.60
2018-06-30T11:43:28.059Z,20.30
2018-06-30T11:45:57.366Z,20.10
2018-06-30T11:48:26.302Z,20.20
2018-06-30T11:50:55.330Z,20.40
2018-06-30T11:53:24.340Z,20.50
2018-06-30T11:55:53.278Z,20.70
2018-06-30T11:58:22.545Z,20.60
2018-06-30T12:00:51.900Z,20.50
2018-06-30T12:03:21.233Z,20.50
2018-06-30T12:05:50.641Z,20.70
2018-06-30T12:08:20.061Z,20.80
2018-06-30T12:10:49.211Z,20.80
2018-06-30T12:13:18.443Z,20.70
2018-06-30T12:15:47.950Z,20.60
2018-06-30T12:18:17.114Z,20.70
2018-06-30T12:20:46.314Z,20.80
2018-06-30T12:23:15.550Z,21.10
2018-06-30T12:25:44.671Z,21.50
2018-06-30T12:28:13.766Z,21.50
2018-06-30T12:30:42.903Z,21.70
2018-06-30T12:33:12.447Z,21.80
2018-06-30T12:35:41.596Z,21.80
2018-06-30T12:38:11.271Z,22.00
2018-06-30T12:40:40.527Z,22.00
2018-06-30T12:43:09.945Z,22.30
2018-06-30T12:45:39.283Z,22.30
2018-06-30T12:48:08.583Z,22.30
2018-06-30T12:50:38.102Z,21.70
2018-06-30T12:53:08.028Z,21.10
2018-06-30T12:55:37.842Z,20.20
2018-06-30T12:58:07.340Z,19.90
2018-06-30T13:00:36.607Z,19.90
2018-06-30T13:03:05.603Z,19.90
2018-06-30T13:05:34.671Z,19.70
2018-06-30T13:08:03.896Z,19.80
2018-06-30T13:10:36.187Z,19.80
2018-06-30T13:13:06.565Z,19.70
2018-06-30T13:15:35.922Z,19.70
2018-06-30T13:18:05.802Z,19.80
2018-06-30T13:20:35.170Z,20.00
2018-06-30T13:23:05.248Z,20.20
2018-06-30T13:28:03.264Z,21.30
2018-06-30T13:30:32.457Z,21.20
2018-06-30T13:33:01.570Z,20.80
2018-06-30T13:35:30.878Z,20.40
2018-06-30T13:38:00.163Z,19.90
2018-06-30T13:40:29.366Z,19.90
2018-06-30T13:42:58.378Z,19.90
2018-06-30T13:45:27.747Z,20.10
2018-06-30T13:47:57.657Z,19.90
2018-06-30T13:50:27.678Z,19.80
2018-06-30T13:52:56.977Z,19.80
2018-06-30T13:55:26.283Z,19.50
2018-06-30T13:57:55.608Z,19.50
2018-06-30T14:00:24.858Z,19.50
2018-06-30T14:02:54.077Z,19.70
2018-06-30T14:05:23.211Z,20.10
2018-06-30T14:07:52.299Z,20.10
2018-06-30T14:10:21.431Z,20.30
2018-06-30T14:12:51.205Z,20.60
2018-06-30T14:15:20.948Z,20.60
2018-06-30T14:17:50.189Z,20.70
2018-06-30T14:20:19.358Z,20.30
2018-06-30T14:22:48.631Z,20.20
2018-06-30T14:27:46.639Z,19.90
2018-06-30T14:30:15.932Z,19.80
2018-06-30T14:32:45.223Z,19.80
2018-06-30T14:35:14.434Z,19.90
2018-06-30T14:37:43.631Z,19.70
2018-06-30T14:40:12.825Z,19.80
2018-06-30T14:42:41.993Z,19.80
2018-06-30T14:45:11.209Z,20.00
2018-06-30T14:47:40.910Z,20.20
2018-06-30T14:50:10.462Z,20.20
2018-06-30T14:52:39.903Z,20.40
2018-06-30T14:55:09.108Z,20.60
2018-06-30T14:57:38.233Z,20.80
2018-06-30T15:00:08.702Z,20.90
2018-06-30T15:02:37.927Z,20.60
2018-06-30T15:05:07.974Z,20.50
2018-06-30T15:07:37.640Z,20.40
2018-06-30T15:10:07.706Z,20.60
2018-06-30T15:12:37.105Z,20.50
2018-06-30T15:15:06.611Z,20.70
2018-06-30T15:17:36.217Z,20.80
2018-06-30T15:20:06.135Z,20.60
2018-06-30T15:22:35.258Z,20.20
2018-06-30T15:25:04.618Z,20.10
2018-06-30T15:27:33.855Z,20.30
2018-06-30T15:30:03.175Z,20.40
2018-06-30T15:32:32.471Z,20.40
2018-06-30T15:35:01.798Z,20.40
2018-06-30T15:37:30.854Z,20.50
2018-06-30T15:40:00.058Z,20.50
2018-06-30T15:42:29.256Z,20.40
2018-06-30T15:44:58.574Z,20.10
2018-06-30T15:47:28.309Z,20.20
2018-06-30T15:49:57.455Z,20.40
2018-06-30T15:52:26.555Z,20.80
2018-06-30T15:54:55.781Z,20.80
2018-06-30T15:57:25.947Z,20.60
2018-06-30T15:59:54.842Z,20.40
2018-06-30T16:02:24.159Z,20.30
2018-06-30T16:04:53.943Z,20.20
2018-06-30T16:07:23.176Z,19.90
2018-06-30T16:09:52.255Z,19.70
2018-06-30T16:12:21.490Z,19.50
2018-06-30T16:14:50.647Z,19.50
2018-06-30T16:17:20.193Z,19.50
2018-06-30T16:19:49.314Z,19.40
2018-06-30T16:22:19.084Z,19.30
2018-06-30T16:24:49.399Z,19.40
2018-06-30T16:27:18.618Z,19.50
2018-06-30T16:29:48.087Z,19.70
2018-06-30T16:32:17.247Z,19.70
2018-06-30T16:34:46.585Z,19.50
2018-06-30T16:37:15.836Z,19.50
2018-06-30T16:39:45.016Z,19.40
2018-06-30T16:42:14.126Z,19.20
2018-06-30T16:44:43.349Z,19.10
2018-06-30T16:47:12.344Z,19.10
2018-06-30T16:49:41.317Z,19.20
2018-06-30T16:52:10.999Z,19.30
2018-06-30T16:54:40.323Z,19.30
2018-06-30T16:57:09.624Z,19.30
2018-06-30T16:59:39.233Z,19.20
2018-06-30T17:02:08.623Z,19.10
2018-06-30T17:04:37.800Z,19.00
2018-06-30T17:07:07.060Z,18.80
2018-06-30T17:09:36.214Z,18.80
2018-06-30T17:12:05.412Z,18.70
2018-06-30T17:14:35.468Z,18.70
2018-06-30T17:17:04.650Z,18.60
2018-06-30T17:19:33.909Z,18.60
2018-06-30T17:22:03.122Z,18.60
2018-06-30T17:24:32.190Z,18.60
2018-06-30T17:27:01.399Z,18.60
2018-06-30T17:29:30.879Z,18.70
2018-06-30T17:32:00.033Z,18.50
2018-06-30T17:34:29.158Z,18.60
2018-06-30T17:36:58.314Z,18.60
2018-06-30T17:39:27.604Z,18.50
2018-06-30T17:41:57.090Z,18.40
2018-06-30T17:44:26.699Z,18.30
2018-06-30T17:46:55.994Z,18.20
2018-06-30T17:49:25.297Z,18.10
2018-06-30T17:51:54.669Z,18.00
2018-06-30T17:54:24.000Z,18.00
2018-06-30T17:56:53.380Z,18.00
2018-06-30T17:59:22.721Z,18.00
2018-06-30T18:01:52.183Z,18.10
2018-06-30T18:04:21.365Z,18.10
2018-06-30T18:06:50.509Z,18.10
2018-06-30T18:09:20.563Z,18.10
2018-06-30T18:11:50.024Z,18.20
2018-06-30T18:14:19.182Z,18.10
2018-06-30T18:16:49.221Z,18.20
2018-06-30T18:19:18.598Z,18.10
2018-06-30T18:21:47.927Z,18.00
2018-06-30T18:24:17.193Z,17.90
2018-06-30T18:26:46.417Z,17.80
2018-06-30T18:29:15.684Z,17.60
2018-06-30T18:31:44.651Z,17.50
2018-06-30T18:34:13.777Z,17.50
2018-06-30T18:36:43.063Z,17.40
2018-06-30T18:39:12.783Z,17.30
2018-06-30T18:41:42.379Z,17.30
2018-06-30T18:44:11.730Z,17.30
2018-06-30T18:46:42.231Z,17.30
2018-06-30T18:49:11.507Z,17.20
2018-06-30T18:51:40.697Z,17.10
2018-06-30T18:54:10.635Z,17.00
2018-06-30T18:56:39.779Z,16.90
2018-06-30T18:59:09.075Z,16.90
2018-06-30T19:01:38.305Z,16.80
2018-06-30T19:04:08.713Z,16.70
2018-06-30T19:06:37.799Z,16.60
2018-06-30T19:09:09.151Z,16.50
2018-06-30T19:11:38.359Z,16.40
2018-06-30T19:14:08.427Z,16.30
2018-06-30T19:16:37.817Z,16.30
2018-06-30T19:19:07.273Z,16.20
2018-06-30T19:21:36.719Z,16.30
2018-06-30T19:24:06.936Z,16.30
2018-06-30T19:26:36.595Z,16.20
2018-06-30T19:29:06.357Z,16.20
2018-06-30T19:31:35.555Z,16.20
2018-06-30T19:34:04.948Z,16.10
2018-06-30T19:36:35.160Z,16.00
2018-06-30T19:39:04.912Z,15.90
2018-06-30T19:41:34.552Z,15.80
2018-06-30T19:44:03.954Z,15.80
2018-06-30T19:46:33.622Z,15.70
2018-06-30T19:51:31.708Z,15.60
2018-06-30T19:54:00.995Z,15.60
2018-06-30T19:56:30.661Z,15.60
2018-06-30T19:58:59.885Z,15.50
2018-06-30T20:01:29.459Z,15.50
2018-06-30T20:03:58.638Z,15.60
2018-06-30T20:06:27.824Z,15.60
2018-06-30T20:08:57.057Z,15.50
2018-06-30T20:11:26.431Z,15.50
2018-06-30T20:13:55.824Z,15.60
2018-06-30T20:16:25.196Z,15.50
2018-06-30T20:18:54.486Z,15.50
2018-06-30T20:21:23.666Z,15.50
2018-06-30T20:23:52.779Z,15.50
2018-06-30T20:26:21.999Z,15.40
2018-06-30T20:28:51.688Z,15.30
2018-06-30T20:31:21.540Z,15.30
2018-06-30T20:33:50.796Z,15.30
2018-06-30T20:38:50.240Z,15.40
2018-06-30T20:41:19.999Z,15.40
2018-06-30T20:43:49.153Z,15.30
2018-06-30T20:46:18.626Z,15.30
2018-06-30T20:48:47.579Z,15.20
2018-06-30T20:51:16.519Z,15.20
2018-06-30T20:53:46.263Z,15.10
2018-06-30T20:56:15.281Z,15.10
2018-06-30T20:58:44.433Z,15.00
2018-06-30T21:01:13.648Z,15.00
2018-06-30T21:03:42.826Z,14.90
2018-06-30T21:06:12.634Z,15.00
2018-06-30T21:08:41.919Z,15.00
2018-06-30T21:11:11.145Z,14.90
2018-06-30T21:13:40.398Z,14.90
2018-06-30T21:16:09.700Z,14.90
2018-06-30T21:18:39.266Z,14.90
2018-06-30T21:21:08.524Z,14.90
2018-06-30T21:23:38.410Z,14.90
2018-06-30T21:26:07.654Z,15.00
2018-06-30T21:28:37.091Z,14.90
2018-06-30T21:31:06.347Z,14.80
2018-06-30T21:33:35.708Z,14.70
2018-06-30T21:36:05.419Z,14.60
2018-06-30T21:38:34.583Z,14.60
2018-06-30T21:41:03.686Z,14.50
2018-06-30T21:43:32.779Z,14.50
2018-06-30T21:46:01.875Z,14.40
2018-06-30T21:48:30.966Z,14.40
2018-06-30T21:51:00.328Z,14.40
2018-06-30T21:53:29.465Z,14.40
2018-06-30T21:55:59.371Z,14.30
2018-06-30T21:58:28.609Z,14.40
2018-06-30T22:01:03.015Z,14.30
2018-06-30T22:03:32.397Z,14.30
2018-06-30T22:06:01.710Z,14.30
2018-06-30T22:08:30.915Z,14.30
2018-06-30T22:11:00.535Z,14.40
2018-06-30T22:13:29.930Z,14.40
2018-06-30T22:15:59.558Z,14.40
2018-06-30T22:18:28.767Z,14.50
2018-06-30T22:20:58.000Z,14.50
2018-06-30T22:23:27.194Z,14.50
2018-06-30T22:25:56.410Z,14.50
2018-06-30T22:28:26.546Z,14.60
2018-06-30T22:30:55.932Z,14.60
2018-06-30T22:33:25.767Z,14.60
2018-06-30T22:35:54.921Z,14.50
2018-06-30T22:38:24.104Z,14.40
2018-06-30T22:40:53.775Z,14.30
2018-06-30T22:43:23.114Z,14.20
2018-06-30T22:45:52.329Z,14.20
2018-06-30T22:48:21.605Z,14.10
2018-06-30T22:50:50.758Z,14.00
2018-06-30T22:53:19.664Z,14.00
2018-06-30T22:55:48.979Z,13.90
2018-06-30T22:58:18.303Z,13.90
2018-06-30T23:00:47.438Z,13.80
2018-06-30T23:03:16.582Z,13.70
2018-06-30T23:05:45.780Z,13.70
2018-06-30T23:08:15.103Z,13.70
2018-06-30T23:10:44.230Z,13.60
2018-06-30T23:13:13.372Z,13.50
2018-06-30T23:15:42.959Z,13.50
2018-06-30T23:18:12.426Z,13.50
2018-06-30T23:20:41.320Z,13.40
2018-06-30T23:23:11.836Z,13.30
2018-06-30T23:25:41.339Z,13.20
2018-06-30T23:28:10.503Z,13.20
2018-06-30T23:30:39.783Z,13.20
2018-06-30T23:33:08.951Z,13.10
2018-06-30T23:35:38.879Z,13.00
2018-06-30T23:38:08.668Z,12.90
2018-06-30T23:40:37.891Z,12.90
2018-06-30T23:43:07.180Z,12.90
2018-06-30T23:45:36.945Z,12.80
2018-06-30T23:48:06.695Z,12.80
2018-06-30T23:50:35.994Z,12.80
2018-06-30T23:53:05.291Z,12.70
2018-06-30T23:55:34.583Z,12.60
2018-06-30T23:58:04.034Z,12.60
